sensor_id;sensor_type;location;lat;lon;timestamp;pressure;altitude;pressure_sealevel;temperature;humidity
38880;BME280;25887;30.194;-97.880;2022-08-24T00:41:52;97944.28;;;32.46;50.45
38880;BME280;25887;30.194;-97.880;2022-08-24T00:44:18;97948.88;;;32.44;50.36
38880;BME280;25887;30.194;-97.880;2022-08-24T00:49:24;97961.81;;;32.39;50.42
38880;BME280;25887;30.194;-97.880;2022-08-24T00:51:56;97963.75;;;32.37;50.13
38880;BME280;25887;30.194;-97.880;2022-08-24T00:54:42;97965.75;;;32.35;49.94
38880;BME280;25887;30.194;-97.880;2022-08-24T00:57:09;97972.31;;;32.31;49.93
38880;BME280;25887;30.194;-97.880;2022-08-24T00:59:47;97979.56;;;32.29;50.04
38880;BME280;25887;30.194;-97.880;2022-08-24T01:02:19;97973.56;;;32.27;50.55
38880;BME280;25887;30.194;-97.880;2022-08-24T01:04:48;97981.03;;;32.23;50.00
38880;BME280;25887;30.194;-97.880;2022-08-24T01:07:16;97984.78;;;32.21;50.08
38880;BME280;25887;30.194;-97.880;2022-08-24T01:09:42;97993.75;;;32.20;50.41
38880;BME280;25887;30.194;-97.880;2022-08-24T01:12:08;97991.41;;;32.16;50.50
38880;BME280;25887;30.194;-97.880;2022-08-24T01:14:35;98001.34;;;32.14;50.09
38880;BME280;25887;30.194;-97.880;2022-08-24T01:17:01;97996.31;;;32.11;50.11
38880;BME280;25887;30.194;-97.880;2022-08-24T01:19:47;97999.25;;;32.08;50.63
38880;BME280;25887;30.194;-97.880;2022-08-24T01:24:58;98015.78;;;32.02;50.33
38880;BME280;25887;30.194;-97.880;2022-08-24T01:27:24;98023.22;;;31.99;50.32
38880;BME280;25887;30.194;-97.880;2022-08-24T01:29:50;98017.19;;;31.97;50.89
38880;BME280;25887;30.194;-97.880;2022-08-24T01:32:18;98014.81;;;31.94;50.91
38880;BME280;25887;30.194;-97.880;2022-08-24T01:34:44;98023.78;;;31.93;50.58
38880;BME280;25887;30.194;-97.880;2022-08-24T01:37:10;98019.56;;;31.90;50.46
38880;BME280;25887;30.194;-97.880;2022-08-24T01:39:37;98027.69;;;31.88;50.74
38880;BME280;25887;30.194;-97.880;2022-08-24T01:42:04;98030.50;;;31.87;50.72
38880;BME280;25887;30.194;-97.880;2022-08-24T01:44:31;98029.81;;;31.85;50.89
38880;BME280;25887;30.194;-97.880;2022-08-24T01:46:59;98037.94;;;31.83;50.83
38880;BME280;25887;30.194;-97.880;2022-08-24T01:49:26;98050.50;;;31.81;50.63
38880;BME280;25887;30.194;-97.880;2022-08-24T01:51:54;98048.97;;;31.79;50.85
38880;BME280;25887;30.194;-97.880;2022-08-24T01:54:21;98050.94;;;31.77;50.68
38880;BME280;25887;30.194;-97.880;2022-08-24T01:56:46;98059.13;;;31.74;51.18
38880;BME280;25887;30.194;-97.880;2022-08-24T01:59:12;98063.06;;;31.70;51.09
38880;BME280;25887;30.194;-97.880;2022-08-24T02:01:39;98065.88;;;31.68;51.35
38880;BME280;25887;30.194;-97.880;2022-08-24T02:04:06;98064.31;;;31.66;51.45
38880;BME280;25887;30.194;-97.880;2022-08-24T02:06:32;98075.06;;;31.64;51.45
38880;BME280;25887;30.194;-97.880;2022-08-24T02:08:58;98079.69;;;31.62;51.37
38880;BME280;25887;30.194;-97.880;2022-08-24T02:11:24;98081.66;;;31.60;51.13
38880;BME280;25887;30.194;-97.880;2022-08-24T02:13:50;98088.06;;;31.57;51.42
38880;BME280;25887;30.194;-97.880;2022-08-24T02:16:16;98091.72;;;31.56;51.54
38880;BME280;25887;30.194;-97.880;2022-08-24T02:18:42;98080.41;;;31.54;51.28
38880;BME280;25887;30.194;-97.880;2022-08-24T02:21:09;98078.72;;;31.53;51.60
38880;BME280;25887;30.194;-97.880;2022-08-24T02:23:36;98085.00;;;31.52;51.27
38880;BME280;25887;30.194;-97.880;2022-08-24T02:26:19;98086.09;;;31.50;51.27
38880;BME280;25887;30.194;-97.880;2022-08-24T02:28:45;98085.56;;;31.46;51.48
38880;BME280;25887;30.194;-97.880;2022-08-24T02:31:11;98090.03;;;31.46;51.26
38880;BME280;25887;30.194;-97.880;2022-08-24T02:36:32;98088.75;;;31.40;51.49
38880;BME280;25887;30.194;-97.880;2022-08-24T02:38:58;98099.53;;;31.39;51.62
38880;BME280;25887;30.194;-97.880;2022-08-24T02:41:23;98102.44;;;31.36;51.77
38880;BME280;25887;30.194;-97.880;2022-08-24T02:43:49;98105.22;;;31.34;51.83
38880;BME280;25887;30.194;-97.880;2022-08-24T02:46:16;98107.19;;;31.32;51.67
38880;BME280;25887;30.194;-97.880;2022-08-24T02:48:42;98108.31;;;31.29;51.93
38880;BME280;25887;30.194;-97.880;2022-08-24T02:51:16;98109.41;;;31.27;51.77
38880;BME280;25887;30.194;-97.880;2022-08-24T02:53:42;98105.09;;;31.26;52.02
38880;BME280;25887;30.194;-97.880;2022-08-24T02:56:08;98116.00;;;31.23;51.96
38880;BME280;25887;30.194;-97.880;2022-08-24T02:58:33;98116.00;;;31.23;51.72
38880;BME280;25887;30.194;-97.880;2022-08-24T03:00:59;98122.34;;;31.20;51.83
38880;BME280;25887;30.194;-97.880;2022-08-24T03:03:25;98122.50;;;31.19;51.84
38880;BME280;25887;30.194;-97.880;2022-08-24T03:05:50;98127.09;;;31.17;51.94
38880;BME280;25887;30.194;-97.880;2022-08-24T03:08:16;98134.22;;;31.16;51.98
38880;BME280;25887;30.194;-97.880;2022-08-24T03:10:42;98139.69;;;31.15;51.94
38880;BME280;25887;30.194;-97.880;2022-08-24T03:13:09;98142.47;;;31.13;52.16
38880;BME280;25887;30.194;-97.880;2022-08-24T03:15:35;98139.94;;;31.12;52.17
38880;BME280;25887;30.194;-97.880;2022-08-24T03:18:00;98144.41;;;31.11;52.08
38880;BME280;25887;30.194;-97.880;2022-08-24T03:20:26;98148.19;;;31.09;51.90
38880;BME280;25887;30.194;-97.880;2022-08-24T03:22:52;98150.81;;;31.09;52.17
38880;BME280;25887;30.194;-97.880;2022-08-24T03:25:18;98142.88;;;31.09;51.90
38880;BME280;25887;30.194;-97.880;2022-08-24T03:27:44;98144.81;;;31.06;51.99
38880;BME280;25887;30.194;-97.880;2022-08-24T03:30:11;98144.09;;;31.04;52.35
38880;BME280;25887;30.194;-97.880;2022-08-24T03:32:37;98137.13;;;31.03;52.28
38880;BME280;25887;30.194;-97.880;2022-08-24T03:35:03;98143.41;;;31.02;52.26
38880;BME280;25887;30.194;-97.880;2022-08-24T03:37:29;98142.69;;;31.00;52.53
38880;BME280;25887;30.194;-97.880;2022-08-24T03:39:57;98146.34;;;30.99;52.29
38880;BME280;25887;30.194;-97.880;2022-08-24T03:42:23;98150.94;;;30.97;52.31
38880;BME280;25887;30.194;-97.880;2022-08-24T03:44:48;98163.34;;;30.97;52.48
38880;BME280;25887;30.194;-97.880;2022-08-24T03:47:14;98168.78;;;30.95;52.54
38880;BME280;25887;30.194;-97.880;2022-08-24T03:49:45;98170.75;;;30.93;52.60
38880;BME280;25887;30.194;-97.880;2022-08-24T03:52:11;98174.38;;;30.92;52.58
38880;BME280;25887;30.194;-97.880;2022-08-24T03:54:37;98180.66;;;30.91;52.48
38880;BME280;25887;30.194;-97.880;2022-08-24T03:57:03;98184.28;;;30.90;52.58
38880;BME280;25887;30.194;-97.880;2022-08-24T03:59:28;98182.56;;;30.89;52.82
38880;BME280;25887;30.194;-97.880;2022-08-24T04:01:55;98181.75;;;30.89;52.58
38880;BME280;25887;30.194;-97.880;2022-08-24T04:04:22;98184.38;;;30.89;52.59
38880;BME280;25887;30.194;-97.880;2022-08-24T04:06:48;98182.72;;;30.88;52.51
38880;BME280;25887;30.194;-97.880;2022-08-24T04:09:14;98184.53;;;30.87;52.59
38880;BME280;25887;30.194;-97.880;2022-08-24T04:11:39;98177.53;;;30.86;52.59
38880;BME280;25887;30.194;-97.880;2022-08-24T04:14:08;98186.47;;;30.85;52.69
38880;BME280;25887;30.194;-97.880;2022-08-24T04:16:34;98179.50;;;30.84;52.71
38880;BME280;25887;30.194;-97.880;2022-08-24T04:19:00;98178.81;;;30.82;52.60
38880;BME280;25887;30.194;-97.880;2022-08-24T04:21:27;98169.13;;;30.81;52.78
38880;BME280;25887;30.194;-97.880;2022-08-24T04:23:53;98167.47;;;30.80;52.64
38880;BME280;25887;30.194;-97.880;2022-08-24T04:26:20;98170.25;;;30.78;52.84
38880;BME280;25887;30.194;-97.880;2022-08-24T04:28:46;98172.06;;;30.78;52.81
38880;BME280;25887;30.194;-97.880;2022-08-24T04:31:12;98172.91;;;30.78;52.68
38880;BME280;25887;30.194;-97.880;2022-08-24T04:33:48;98176.66;;;30.76;53.12
38880;BME280;25887;30.194;-97.880;2022-08-24T04:39:43;98187.53;;;30.73;52.98
38880;BME280;25887;30.194;-97.880;2022-08-24T04:42:37;98199.25;;;30.70;53.12
38880;BME280;25887;30.194;-97.880;2022-08-24T04:45:04;98207.19;;;30.70;53.32
38880;BME280;25887;30.194;-97.880;2022-08-24T04:47:29;98199.53;;;30.67;53.18
38880;BME280;25887;30.194;-97.880;2022-08-24T04:49:55;98206.00;;;30.63;53.27
38880;BME280;25887;30.194;-97.880;2022-08-24T04:52:21;98202.78;;;30.60;53.30
38880;BME280;25887;30.194;-97.880;2022-08-24T04:54:47;98205.53;;;30.58;53.15
38880;BME280;25887;30.194;-97.880;2022-08-24T04:57:12;98204.84;;;30.56;53.28
38880;BME280;25887;30.194;-97.880;2022-08-24T04:59:38;98219.06;;;30.55;53.35
38880;BME280;25887;30.194;-97.880;2022-08-24T05:02:05;98213.91;;;30.54;53.20
38880;BME280;25887;30.194;-97.880;2022-08-24T05:04:31;98211.50;;;30.50;53.42
38880;BME280;25887;30.194;-97.880;2022-08-24T05:06:57;98217.78;;;30.49;53.52
38880;BME280;25887;30.194;-97.880;2022-08-24T05:09:23;98215.25;;;30.48;53.48
38880;BME280;25887;30.194;-97.880;2022-08-24T05:11:48;98216.38;;;30.45;53.52
38880;BME280;25887;30.194;-97.880;2022-08-24T05:14:17;98219.25;;;30.42;53.46
38880;BME280;25887;30.194;-97.880;2022-08-24T05:16:43;98218.53;;;30.40;53.55
38880;BME280;25887;30.194;-97.880;2022-08-24T05:19:09;98219.78;;;30.36;53.56
38880;BME280;25887;30.194;-97.880;2022-08-24T05:21:36;98221.97;;;30.31;53.78
38880;BME280;25887;30.194;-97.880;2022-08-24T05:24:02;98219.59;;;30.28;53.72
38880;BME280;25887;30.194;-97.880;2022-08-24T05:26:29;98233.22;;;30.23;53.79
38880;BME280;25887;30.194;-97.880;2022-08-24T05:29:00;98226.72;;;30.16;53.76
38880;BME280;25887;30.194;-97.880;2022-08-24T05:31:28;98231.09;;;30.06;53.83
38880;BME280;25887;30.194;-97.880;2022-08-24T05:33:54;98229.28;;;29.95;54.03
38880;BME280;25887;30.194;-97.880;2022-08-24T05:36:38;98230.78;;;29.88;53.66
38880;BME280;25887;30.194;-97.880;2022-08-24T05:39:06;98226.13;;;29.81;53.84
38880;BME280;25887;30.194;-97.880;2022-08-24T05:41:32;98236.09;;;29.77;53.95
38880;BME280;25887;30.194;-97.880;2022-08-24T05:43:58;98217.09;;;29.72;54.04
38880;BME280;25887;30.194;-97.880;2022-08-24T05:46:24;98230.72;;;29.67;53.99
38880;BME280;25887;30.194;-97.880;2022-08-24T05:48:50;98229.25;;;29.63;54.05
38880;BME280;25887;30.194;-97.880;2022-08-24T05:51:16;98231.31;;;29.60;54.19
38880;BME280;25887;30.194;-97.880;2022-08-24T05:53:42;98231.09;;;29.52;54.30
38880;BME280;25887;30.194;-97.880;2022-08-24T05:56:09;98233.22;;;29.47;54.32
38880;BME280;25887;30.194;-97.880;2022-08-24T05:58:35;98234.44;;;29.42;54.11
38880;BME280;25887;30.194;-97.880;2022-08-24T06:01:06;98238.28;;;29.38;54.20
38880;BME280;25887;30.194;-97.880;2022-08-24T06:03:32;98240.34;;;29.35;54.14
38880;BME280;25887;30.194;-97.880;2022-08-24T06:05:58;98230.81;;;29.32;54.07
38880;BME280;25887;30.194;-97.880;2022-08-24T06:08:23;98225.78;;;29.29;54.28
38880;BME280;25887;30.194;-97.880;2022-08-24T06:10:49;98236.63;;;29.26;54.47
38880;BME280;25887;30.194;-97.880;2022-08-24T06:13:15;98235.16;;;29.22;54.19
38880;BME280;25887;30.194;-97.880;2022-08-24T06:15:41;98240.72;;;29.19;54.24
38880;BME280;25887;30.194;-97.880;2022-08-24T06:18:07;98240.81;;;29.18;54.26
38880;BME280;25887;30.194;-97.880;2022-08-24T06:20:36;98229.50;;;29.16;54.83
38880;BME280;25887;30.194;-97.880;2022-08-24T06:23:03;98234.94;;;29.14;54.49
38880;BME280;25887;30.194;-97.880;2022-08-24T06:25:28;98234.22;;;29.12;54.85
38880;BME280;25887;30.194;-97.880;2022-08-24T06:28:13;98227.25;;;29.11;54.56
38880;BME280;25887;30.194;-97.880;2022-08-24T06:30:39;98228.19;;;29.10;54.85
38880;BME280;25887;30.194;-97.880;2022-08-24T06:33:07;98231.78;;;29.09;54.87
38880;BME280;25887;30.194;-97.880;2022-08-24T06:35:32;98229.16;;;29.09;55.06
38880;BME280;25887;30.194;-97.880;2022-08-24T06:37:58;98225.78;;;29.07;54.89
38880;BME280;25887;30.194;-97.880;2022-08-24T06:40:24;98223.28;;;29.05;54.87
38880;BME280;25887;30.194;-97.880;2022-08-24T06:42:50;98221.59;;;29.04;55.05
38880;BME280;25887;30.194;-97.880;2022-08-24T06:45:16;98222.44;;;29.05;55.43
38880;BME280;25887;30.194;-97.880;2022-08-24T06:47:42;98224.22;;;29.04;55.44
38880;BME280;25887;30.194;-97.880;2022-08-24T06:50:08;98221.59;;;29.04;55.13
38880;BME280;25887;30.194;-97.880;2022-08-24T06:52:35;98225.19;;;29.03;55.04
38880;BME280;25887;30.194;-97.880;2022-08-24T06:55:01;98231.19;;;29.05;55.34
38880;BME280;25887;30.194;-97.880;2022-08-24T06:57:27;98226.03;;;29.04;55.64
38880;BME280;25887;30.194;-97.880;2022-08-24T06:59:52;98223.50;;;29.02;55.57
38880;BME280;25887;30.194;-97.880;2022-08-24T07:02:18;98231.31;;;29.04;55.40
38880;BME280;25887;30.194;-97.880;2022-08-24T07:04:56;98227.84;;;29.03;55.38
38880;BME280;25887;30.194;-97.880;2022-08-24T07:07:22;98221.72;;;29.03;55.45
38880;BME280;25887;30.194;-97.880;2022-08-24T07:09:48;98224.22;;;29.04;55.58
38880;BME280;25887;30.194;-97.880;2022-08-24T07:12:13;98212.81;;;29.04;55.60
38880;BME280;25887;30.194;-97.880;2022-08-24T07:14:39;98220.75;;;29.04;55.63
38880;BME280;25887;30.194;-97.880;2022-08-24T07:17:05;98215.47;;;29.04;55.67
38880;BME280;25887;30.194;-97.880;2022-08-24T07:19:42;98219.91;;;29.03;55.85
38880;BME280;25887;30.194;-97.880;2022-08-24T07:22:20;98215.69;;;29.01;55.64
38880;BME280;25887;30.194;-97.880;2022-08-24T07:24:46;98216.63;;;29.00;55.87
38880;BME280;25887;30.194;-97.880;2022-08-24T07:27:12;98214.97;;;28.99;55.79
38880;BME280;25887;30.194;-97.880;2022-08-24T07:29:38;98215.09;;;28.97;55.69
38880;BME280;25887;30.194;-97.880;2022-08-24T07:32:04;98219.53;;;28.97;56.19
38880;BME280;25887;30.194;-97.880;2022-08-24T07:34:30;98210.03;;;28.94;56.10
38880;BME280;25887;30.194;-97.880;2022-08-24T07:36:57;98207.50;;;28.93;55.79
38880;BME280;25887;30.194;-97.880;2022-08-24T07:39:25;98211.09;;;28.92;56.20
38880;BME280;25887;30.194;-97.880;2022-08-24T07:41:50;98208.59;;;28.90;55.79
38880;BME280;25887;30.194;-97.880;2022-08-24T07:44:16;98200.75;;;28.89;56.31
38880;BME280;25887;30.194;-97.880;2022-08-24T07:46:42;98198.19;;;28.87;55.82
38880;BME280;25887;30.194;-97.880;2022-08-24T07:49:09;98206.25;;;28.85;55.88
38880;BME280;25887;30.194;-97.880;2022-08-24T07:51:36;98204.44;;;28.86;56.29
38880;BME280;25887;30.194;-97.880;2022-08-24T07:54:02;98195.81;;;28.84;56.05
38880;BME280;25887;30.194;-97.880;2022-08-24T07:56:28;98202.78;;;28.85;56.29
38880;BME280;25887;30.194;-97.880;2022-08-24T07:58:54;98191.34;;;28.84;55.92
38880;BME280;25887;30.194;-97.880;2022-08-24T08:01:20;98194.00;;;28.84;56.32
38880;BME280;25887;30.194;-97.880;2022-08-24T08:03:46;98194.13;;;28.83;56.33
38880;BME280;25887;30.194;-97.880;2022-08-24T08:06:12;98193.28;;;28.82;56.01
38880;BME280;25887;30.194;-97.880;2022-08-24T08:08:39;98192.56;;;28.80;56.40
38880;BME280;25887;30.194;-97.880;2022-08-24T08:11:05;98194.38;;;28.80;56.33
38880;BME280;25887;30.194;-97.880;2022-08-24T08:13:32;98191.81;;;28.78;56.34
38880;BME280;25887;30.194;-97.880;2022-08-24T08:15:58;98198.06;;;28.77;56.53
38880;BME280;25887;30.194;-97.880;2022-08-24T08:18:25;98191.94;;;28.77;56.49
38880;BME280;25887;30.194;-97.880;2022-08-24T08:20:51;98191.22;;;28.75;56.24
38880;BME280;25887;30.194;-97.880;2022-08-24T08:23:17;98198.19;;;28.76;56.56
38880;BME280;25887;30.194;-97.880;2022-08-24T08:26:01;98193.88;;;28.75;56.78
38880;BME280;25887;30.194;-97.880;2022-08-24T08:28:42;98194.72;;;28.75;56.25
38880;BME280;25887;30.194;-97.880;2022-08-24T08:31:08;98183.44;;;28.73;56.35
38880;BME280;25887;30.194;-97.880;2022-08-24T08:33:34;98183.56;;;28.72;56.87
38880;BME280;25887;30.194;-97.880;2022-08-24T08:36:09;98183.56;;;28.72;56.82
38880;BME280;25887;30.194;-97.880;2022-08-24T08:38:36;98185.44;;;28.70;56.36
38880;BME280;25887;30.194;-97.880;2022-08-24T08:43:38;98183.75;;;28.69;56.47
38880;BME280;25887;30.194;-97.880;2022-08-24T08:51:41;98179.56;;;28.66;56.75
38880;BME280;25887;30.194;-97.880;2022-08-24T09:00:14;98172.81;;;28.62;57.15
38880;BME280;25887;30.194;-97.880;2022-08-24T09:08:08;98179.06;;;28.61;56.76
38880;BME280;25887;30.194;-97.880;2022-08-24T09:10:41;98191.44;;;28.61;57.12
38880;BME280;25887;30.194;-97.880;2022-08-24T09:18:46;98180.28;;;28.57;57.08
38880;BME280;25887;30.194;-97.880;2022-08-24T09:21:26;98180.28;;;28.57;57.11
38880;BME280;25887;30.194;-97.880;2022-08-24T09:26:48;98172.44;;;28.55;56.87
38880;BME280;25887;30.194;-97.880;2022-08-24T09:39:58;98171.59;;;28.55;57.46
38880;BME280;25887;30.194;-97.880;2022-08-24T09:45:01;98173.28;;;28.56;57.50
38880;BME280;25887;30.194;-97.880;2022-08-24T09:47:40;98184.81;;;28.55;57.53
38880;BME280;25887;30.194;-97.880;2022-08-24T09:50:24;98187.72;;;28.52;57.21
38880;BME280;25887;30.194;-97.880;2022-08-24T09:53:00;98186.03;;;28.51;57.59
38880;BME280;25887;30.194;-97.880;2022-08-24T10:00:44;98192.41;;;28.48;57.67
38880;BME280;25887;30.194;-97.880;2022-08-24T10:05:58;98187.94;;;28.49;57.53
38880;BME280;25887;30.194;-97.880;2022-08-24T10:16:19;98182.03;;;28.45;57.44
38880;BME280;25887;30.194;-97.880;2022-08-24T10:21:39;98190.09;;;28.44;57.66
38880;BME280;25887;30.194;-97.880;2022-08-24T10:29:47;98198.97;;;28.43;57.72
38880;BME280;25887;30.194;-97.880;2022-08-24T10:53:31;98189.84;;;28.36;57.93
38880;BME280;25887;30.194;-97.880;2022-08-24T10:56:13;98189.13;;;28.34;57.67
38880;BME280;25887;30.194;-97.880;2022-08-24T10:58:44;98193.56;;;28.33;57.61
38880;BME280;25887;30.194;-97.880;2022-08-24T11:01:13;98209.50;;;28.31;57.99
38880;BME280;25887;30.194;-97.880;2022-08-24T11:03:49;98199.91;;;28.30;58.05
38880;BME280;25887;30.194;-97.880;2022-08-24T11:06:17;98202.63;;;28.29;57.76
38880;BME280;25887;30.194;-97.880;2022-08-24T11:08:57;98212.47;;;28.27;57.50
38880;BME280;25887;30.194;-97.880;2022-08-24T11:11:28;98221.44;;;28.24;57.73
38880;BME280;25887;30.194;-97.880;2022-08-24T11:13:57;98213.78;;;28.21;57.79
38880;BME280;25887;30.194;-97.880;2022-08-24T11:16:26;98225.28;;;28.20;57.66
38880;BME280;25887;30.194;-97.880;2022-08-24T11:18:53;98221.94;;;28.18;58.17
38880;BME280;25887;30.194;-97.880;2022-08-24T11:21:30;98236.94;;;28.18;58.07
38880;BME280;25887;30.194;-97.880;2022-08-24T11:24:03;98234.41;;;28.16;57.73
38880;BME280;25887;30.194;-97.880;2022-08-24T11:26:29;98236.31;;;28.14;58.01
38880;BME280;25887;30.194;-97.880;2022-08-24T11:28:59;98233.66;;;28.14;58.06
38880;BME280;25887;30.194;-97.880;2022-08-24T11:34:13;98241.84;;;28.11;58.03
38880;BME280;25887;30.194;-97.880;2022-08-24T11:36:40;98241.94;;;28.10;58.05
38880;BME280;25887;30.194;-97.880;2022-08-24T11:42:24;98257.88;;;28.08;57.97
38880;BME280;25887;30.194;-97.880;2022-08-24T11:49:52;98280.09;;;28.06;58.35
38880;BME280;25887;30.194;-97.880;2022-08-24T11:52:38;98277.56;;;28.04;57.93
38880;BME280;25887;30.194;-97.880;2022-08-24T11:55:48;98274.22;;;28.02;58.12
38880;BME280;25887;30.194;-97.880;2022-08-24T12:04:03;98280.66;;;27.98;58.17
38880;BME280;25887;30.194;-97.880;2022-08-24T12:06:13;98281.63;;;27.97;58.23
38880;BME280;25887;30.194;-97.880;2022-08-24T12:08:45;98291.44;;;27.95;58.33
38880;BME280;25887;30.194;-97.880;2022-08-24T12:11:14;98294.19;;;27.93;58.04
38880;BME280;25887;30.194;-97.880;2022-08-24T12:19:10;98305.81;;;27.91;58.33
38880;BME280;25887;30.194;-97.880;2022-08-24T12:21:39;98298.00;;;27.89;58.50
38880;BME280;25887;30.194;-97.880;2022-08-24T12:24:28;98302.44;;;27.89;58.42
38880;BME280;25887;30.194;-97.880;2022-08-24T12:26:57;98298.13;;;27.88;58.13
38880;BME280;25887;30.194;-97.880;2022-08-24T12:31:57;98309.66;;;27.87;58.06
38880;BME280;25887;30.194;-97.880;2022-08-24T12:37:12;98310.56;;;27.86;58.57
38880;BME280;25887;30.194;-97.880;2022-08-24T12:39:44;98319.25;;;27.88;58.48
38880;BME280;25887;30.194;-97.880;2022-08-24T12:45:09;98333.19;;;27.90;58.18
38880;BME280;25887;30.194;-97.880;2022-08-24T12:50:03;98338.22;;;27.93;58.73
38880;BME280;25887;30.194;-97.880;2022-08-24T13:00:31;98353.66;;;27.99;58.83
38880;BME280;25887;30.194;-97.880;2022-08-24T13:03:00;98352.69;;;28.00;58.43
38880;BME280;25887;30.194;-97.880;2022-08-24T13:05:36;98361.38;;;28.02;58.62
38880;BME280;25887;30.194;-97.880;2022-08-24T13:08:09;98366.53;;;28.03;58.42
38880;BME280;25887;30.194;-97.880;2022-08-24T13:10:42;98363.78;;;28.05;58.86
38880;BME280;25887;30.194;-97.880;2022-08-24T13:13:12;98373.38;;;28.06;58.83
38880;BME280;25887;30.194;-97.880;2022-08-24T13:28:06;98379.19;;;28.11;58.58
38880;BME280;25887;30.194;-97.880;2022-08-24T13:30:35;98380.03;;;28.12;58.50
38880;BME280;25887;30.194;-97.880;2022-08-24T13:33:04;98375.59;;;28.12;58.74
38880;BME280;25887;30.194;-97.880;2022-08-24T13:35:33;98369.34;;;28.13;58.86
38880;BME280;25887;30.194;-97.880;2022-08-24T13:40:45;98370.06;;;28.15;58.91
38880;BME280;25887;30.194;-97.880;2022-08-24T13:43:19;98373.47;;;28.17;59.14
38880;BME280;25887;30.194;-97.880;2022-08-24T13:54:08;98381.69;;;28.25;58.76
38880;BME280;25887;30.194;-97.880;2022-08-24T14:02:19;98387.81;;;28.26;58.91
38880;BME280;25887;30.194;-97.880;2022-08-24T14:05:00;98392.97;;;28.27;59.17
38880;BME280;25887;30.194;-97.880;2022-08-24T14:07:29;98392.03;;;28.28;59.00
38880;BME280;25887;30.194;-97.880;2022-08-24T14:10:19;98395.44;;;28.30;58.75
38880;BME280;25887;30.194;-97.880;2022-08-24T14:12:52;98397.09;;;28.31;59.35
38880;BME280;25887;30.194;-97.880;2022-08-24T14:20:51;98397.41;;;28.40;59.26
38880;BME280;25887;30.194;-97.880;2022-08-24T14:25:45;98402.25;;;28.46;58.96
38880;BME280;25887;30.194;-97.880;2022-08-24T14:30:42;98408.25;;;28.48;59.08
38880;BME280;25887;30.194;-97.880;2022-08-24T14:35:37;98402.75;;;28.51;58.96
38880;BME280;25887;30.194;-97.880;2022-08-24T14:59:05;98416.25;;;28.59;59.26
38880;BME280;25887;30.194;-97.880;2022-08-24T15:01:36;98422.28;;;28.61;58.78
38880;BME280;25887;30.194;-97.880;2022-08-24T15:07:28;98428.19;;;28.65;58.79
38880;BME280;25887;30.194;-97.880;2022-08-24T15:09:53;98420.03;;;28.68;59.13
38880;BME280;25887;30.194;-97.880;2022-08-24T15:20:19;98415.66;;;28.79;59.29
38880;BME280;25887;30.194;-97.880;2022-08-24T15:22:56;98416.38;;;28.81;59.26
38880;BME280;25887;30.194;-97.880;2022-08-24T15:25:41;98414.56;;;28.82;59.33
38880;BME280;25887;30.194;-97.880;2022-08-24T15:28:11;98412.66;;;28.84;59.04
38880;BME280;25887;30.194;-97.880;2022-08-24T15:30:38;98422.16;;;28.86;59.44
38880;BME280;25887;30.194;-97.880;2022-08-24T15:33:11;98416.66;;;28.90;58.83
38880;BME280;25887;30.194;-97.880;2022-08-24T15:35:39;98421.72;;;28.93;58.86
38880;BME280;25887;30.194;-97.880;2022-08-24T15:40:41;98416.00;;;28.99;59.08
38880;BME280;25887;30.194;-97.880;2022-08-24T15:43:07;98415.03;;;29.00;58.93
38880;BME280;25887;30.194;-97.880;2022-08-24T15:45:36;98416.59;;;29.02;59.00
38880;BME280;25887;30.194;-97.880;2022-08-24T15:48:05;98422.50;;;29.06;58.92
38880;BME280;25887;30.194;-97.880;2022-08-24T15:50:32;98417.09;;;29.07;59.10
38880;BME280;25887;30.194;-97.880;2022-08-24T15:53:00;98424.91;;;29.09;59.29
38880;BME280;25887;30.194;-97.880;2022-08-24T15:55:29;98422.16;;;29.10;59.04
38880;BME280;25887;30.194;-97.880;2022-08-24T15:57:58;98422.06;;;29.12;58.81
38880;BME280;25887;30.194;-97.880;2022-08-24T16:00:36;98419.28;;;29.13;59.19
38880;BME280;25887;30.194;-97.880;2022-08-24T16:05:49;98420.84;;;29.16;59.32
38880;BME280;25887;30.194;-97.880;2022-08-24T16:08:16;98415.22;;;29.21;58.95
38880;BME280;25887;30.194;-97.880;2022-08-24T16:21:11;98408.00;;;29.58;59.18
38880;BME280;25887;30.194;-97.880;2022-08-24T16:23:37;98405.47;;;29.67;58.97
38880;BME280;25887;30.194;-97.880;2022-08-24T16:28:56;98410.41;;;29.83;59.25
38880;BME280;25887;30.194;-97.880;2022-08-24T16:36:41;98407.31;;;29.89;58.67
38880;BME280;25887;30.194;-97.880;2022-08-24T16:39:06;98415.13;;;29.91;58.73
38880;BME280;25887;30.194;-97.880;2022-08-24T16:41:35;98408.84;;;29.92;58.68
38880;BME280;25887;30.194;-97.880;2022-08-24T16:44:02;98407.53;;;29.98;58.86
38880;BME280;25887;30.194;-97.880;2022-08-24T16:49:14;98407.06;;;30.15;58.73
38880;BME280;25887;30.194;-97.880;2022-08-24T16:51:40;98398.63;;;30.21;58.57
38880;BME280;25887;30.194;-97.880;2022-08-24T16:54:05;98397.88;;;30.30;58.41
38880;BME280;25887;30.194;-97.880;2022-08-24T16:56:31;98401.59;;;30.39;58.29
38880;BME280;25887;30.194;-97.880;2022-08-24T16:58:57;98401.69;;;30.48;58.42
38880;BME280;25887;30.194;-97.880;2022-08-24T17:01:23;98396.38;;;30.60;58.25
38880;BME280;25887;30.194;-97.880;2022-08-24T17:03:49;98395.50;;;30.70;58.04
38880;BME280;25887;30.194;-97.880;2022-08-24T17:06:18;98391.97;;;30.81;58.12
38880;BME280;25887;30.194;-97.880;2022-08-24T17:08:44;98387.47;;;30.93;57.80
38880;BME280;25887;30.194;-97.880;2022-08-24T17:11:12;98393.81;;;31.01;57.79
38880;BME280;25887;30.194;-97.880;2022-08-24T17:13:37;98390.50;;;31.09;57.54
38880;BME280;25887;30.194;-97.880;2022-08-24T17:16:03;98394.06;;;31.19;57.73
38880;BME280;25887;30.194;-97.880;2022-08-24T17:18:29;98399.88;;;31.24;57.30
38880;BME280;25887;30.194;-97.880;2022-08-24T17:20:55;98384.28;;;31.31;57.60
38880;BME280;25887;30.194;-97.880;2022-08-24T17:23:21;98385.31;;;31.40;57.26
38880;BME280;25887;30.194;-97.880;2022-08-24T17:25:46;98371.38;;;31.47;57.38
38880;BME280;25887;30.194;-97.880;2022-08-24T17:28:14;98371.28;;;31.58;57.01